Date,TemperatureHighF,TemperatureAvgF,TemperatureLowF,DewpointHighF,DewpointAvgF,DewpointLowF,HumidityHigh,HumidityAvg,HumidityLow,PressureMaxIn,PressureMinIn,WindSpeedMaxMPH,WindSpeedAvgMPH,GustSpeedMaxMPH,PrecipitationSumIn
2013-6-1,69.3,60.8,53.7,59.9,54.9,47.6,93,81,68,29.86,29.51,18,3,18,0.00
2013-6-2,65.4,56.0,48.4,48.5,44.3,41.0,89,66,43,30.03,29.86,20,2,20,0.00
2013-6-3,69.6,61.0,48.7,50.5,45.9,41.5,85,59,41,30.05,29.90,21,5,21,0.00
2013-6-4,61.9,56.7,52.9,55.1,52.6,50.4,99,87,66,30.03,29.93,27,10,27,0.95
2013-6-5,69.6,59.3,53.4,59.8,54.8,51.2,99,86,62,30.00,29.88,12,1,12,0.06
2013-6-6,61.6,57.7,54.2,55.4,53.0,50.4,96,85,73,29.96,29.86,13,2,13,0.00
2013-6-7,68.5,59.2,51.3,56.7,52.4,50.1,98,79,58,29.99,29.88,9,1,9,0.00
2013-6-8,66.7,60.8,53.9,59.0,54.5,51.0,92,80,64,29.89,29.78,16,4,16,0.16
2013-6-9,71.5,63.9,60.5,64.8,60.2,56.4,96,88,71,29.78,29.64,23,9,24,0.37
2013-6-10,76.2,66.5,58.1,64.5,61.2,57.5,99,84,62,29.83,29.72,11,1,11,0.01
2013-6-11,85.6,74.0,61.8,68.8,64.9,60.7,97,75,49,29.83,29.68,24,4,24,0.00
2013-6-12,82.7,71.9,63.9,75.2,68.2,59.6,97,88,73,29.82,29.58,24,4,24,1.07
2013-6-13,79.3,68.7,59.5,62.0,57.1,53.9,86,68,46,30.01,29.82,16,2,16,0.00
2013-6-14,74.0,67.5,62.0,62.8,59.9,56.3,92,77,63,30.02,29.82,26,9,26,0.15
2013-6-15,77.5,68.6,63.2,69.8,65.3,61.4,99,90,71,29.91,29.77,32,4,32,0.76
2013-6-16,84.3,73.6,61.8,65.5,58.4,49.6,98,64,32,29.91,29.82,9,1,9,0.01
2013-6-17,84.2,73.4,61.6,62.4,56.2,48.4,78,57,31,29.90,29.82,15,1,15,0.00
2013-6-18,78.4,69.7,61.5,63.0,58.2,55.7,88,68,48,29.99,29.88,15,1,15,0.00
2013-6-19,82.0,71.8,60.9,63.8,59.3,56.2,87,66,43,30.02,29.89,19,8,19,0.00
2013-6-20,87.4,77.5,65.2,66.2,63.3,60.2,86,64,44,29.96,29.82,30,10,30,0.00
2013-6-21,84.7,75.1,63.4,73.8,67.9,60.3,96,79,66,29.92,29.74,28,9,28,0.76
2013-6-22,90.5,75.7,64.2,73.6,67.8,62.3,99,80,43,29.95,29.72,28,7,28,0.95
2013-6-23,80.2,73.7,67.8,71.6,68.2,63.5,99,84,64,29.85,29.64,26,7,29,0.37
2013-6-24,74.4,69.5,65.8,71.1,67.2,62.6,98,92,82,29.89,29.74,24,5,26,0.40
2013-6-25,86.3,75.1,65.8,74.4,69.6,65.1,98,84,53,29.76,29.64,18,5,18,0.00
2013-6-26,85.8,75.8,70.8,76.7,72.8,70.3,99,91,68,29.66,29.59,11,3,11,0.01
2013-6-28,77.2,73.3,67.1,62.0,60.7,58.5,83,65,53,29.73,29.69,16,4,18,0.00
2013-6-29,72.1,66.2,62.5,62.5,59.8,55.9,95,81,58,29.88,29.68,18,2,18,0.08
2013-6-30,76.9,66.7,55.5,57.3,51.6,45.5,84,61,34,30.05,29.88,13,1,13,0.00